createdAt,value
2017-10-07T00:01:55.130Z,5.85
2017-10-07T00:04:24.013Z,4.65
2017-10-07T00:06:52.872Z,5.40
2017-10-07T00:09:21.743Z,5.60
2017-10-07T00:11:50.624Z,3.92
2017-10-07T00:14:20.495Z,5.32
2017-10-07T00:16:49.355Z,4.93
2017-10-07T00:19:18.979Z,7.32
2017-10-07T00:21:47.816Z,5.90
2017-10-07T00:24:16.671Z,3.95
2017-10-07T00:26:45.531Z,4.65
2017-10-07T00:29:15.226Z,5.00
2017-10-07T00:31:43.891Z,4.32
2017-10-07T00:34:12.554Z,4.90
2017-10-07T00:36:41.409Z,4.18
2017-10-07T00:39:11.022Z,4.18
2017-10-07T00:41:40.658Z,4.25
2017-10-07T00:44:09.559Z,4.35
2017-10-07T00:46:38.409Z,3.80
2017-10-07T00:49:08.059Z,5.90
2017-10-07T00:51:36.927Z,4.75
2017-10-07T00:54:05.798Z,5.65
2017-10-07T00:56:35.063Z,4.12
2017-10-07T00:59:03.225Z,3.80
2017-10-07T01:01:31.393Z,3.85
2017-10-07T01:03:59.918Z,4.32
2017-10-07T01:06:29.359Z,3.83
2017-10-07T01:08:58.029Z,4.18
2017-10-07T01:11:27.782Z,3.05
2017-10-07T01:13:56.643Z,3.70
2017-10-07T01:16:25.503Z,4.43
2017-10-07T01:18:54.356Z,3.53
2017-10-07T01:21:23.202Z,4.10
2017-10-07T01:23:51.373Z,3.70
2017-10-07T01:26:20.297Z,3.28
2017-10-07T01:28:48.466Z,3.22
2017-10-07T01:31:16.621Z,4.25
2017-10-07T01:33:45.539Z,4.03
2017-10-07T01:36:14.046Z,4.70
2017-10-07T01:38:42.570Z,3.90
2017-10-07T01:41:12.177Z,3.35
2017-10-07T01:43:40.598Z,3.55
2017-10-07T01:46:08.991Z,3.85
2017-10-07T01:48:38.270Z,4.03
2017-10-07T01:51:07.122Z,3.62
2017-10-07T01:53:36.738Z,4.65
2017-10-07T01:56:06.358Z,4.07
2017-10-07T01:58:35.977Z,4.00
2017-10-07T02:01:04.835Z,5.85
2017-10-07T02:03:33.694Z,5.90
2017-10-07T02:06:02.587Z,3.53
2017-10-07T02:08:32.226Z,4.12
2017-10-07T02:11:01.066Z,3.97
2017-10-07T02:13:29.915Z,3.72
2017-10-07T02:15:59.710Z,4.68
2017-10-07T02:18:28.562Z,3.92
2017-10-07T02:20:57.416Z,4.78
2017-10-07T02:23:27.027Z,3.55
2017-10-07T02:25:56.635Z,5.45
2017-10-07T02:28:26.237Z,3.58
2017-10-07T02:30:55.094Z,3.42
2017-10-07T02:33:23.956Z,4.05
2017-10-07T02:35:52.815Z,3.83
2017-10-07T02:38:22.419Z,3.70
2017-10-07T02:40:51.266Z,3.97
2017-10-07T02:43:20.125Z,4.28
2017-10-07T02:45:48.974Z,4.00
2017-10-07T02:48:17.821Z,4.07
2017-10-07T02:50:46.687Z,4.43
2017-10-07T02:53:16.308Z,5.28
2017-10-07T02:55:45.159Z,4.37
2017-10-07T02:58:14.862Z,5.30
2017-10-07T03:00:43.721Z,5.20
2017-10-07T03:03:12.581Z,5.30
2017-10-07T03:05:41.422Z,4.95
2017-10-07T03:08:10.286Z,5.90
2017-10-07T03:10:39.326Z,5.40
2017-10-07T03:13:08.203Z,5.45
2017-10-07T03:15:37.053Z,4.50
2017-10-07T03:18:05.721Z,5.05
2017-10-07T03:20:35.346Z,5.10
2017-10-07T03:23:04.196Z,5.65
2017-10-07T03:25:33.054Z,6.20
2017-10-07T03:28:01.915Z,4.07
2017-10-07T03:30:30.778Z,4.85
2017-10-07T03:33:00.220Z,4.68
2017-10-07T03:35:29.073Z,4.53
2017-10-07T03:37:57.739Z,4.75
2017-10-07T03:40:26.402Z,3.60
2017-10-07T03:42:55.068Z,4.12
2017-10-07T03:45:23.919Z,4.62
2017-10-07T03:47:52.777Z,3.60
2017-10-07T03:50:21.615Z,4.43
2017-10-07T03:52:50.449Z,4.35
2017-10-07T03:55:19.311Z,4.45
2017-10-07T03:57:48.918Z,3.75
2017-10-07T04:00:18.532Z,3.78
2017-10-07T04:02:47.391Z,4.95
2017-10-07T04:05:16.235Z,4.18
2017-10-07T04:07:45.099Z,3.75
2017-10-07T04:10:14.713Z,4.47
2017-10-07T04:12:43.562Z,4.87
2017-10-07T04:15:12.249Z,4.60
2017-10-07T04:17:41.086Z,4.57
2017-10-07T04:20:09.925Z,5.37
2017-10-07T04:22:38.769Z,4.10
2017-10-07T04:25:07.615Z,5.30
2017-10-07T04:27:36.475Z,4.43
2017-10-07T04:30:05.306Z,4.45
2017-10-07T04:32:34.153Z,4.53
2017-10-07T04:35:03.008Z,4.25
2017-10-07T04:37:33.077Z,5.12
2017-10-07T04:40:01.946Z,5.90
2017-10-07T04:42:30.816Z,6.20
2017-10-07T04:44:59.662Z,6.05
2017-10-07T04:47:28.523Z,4.82
2017-10-07T04:49:57.369Z,5.78
2017-10-07T04:52:27.009Z,5.32
2017-10-07T04:54:55.838Z,6.60
2017-10-07T04:57:24.699Z,4.80
2017-10-07T04:59:53.010Z,5.90
2017-10-07T05:02:21.880Z,5.18
2017-10-07T05:04:50.721Z,5.35
2017-10-07T05:07:20.331Z,4.53
2017-10-07T05:09:49.966Z,5.37
2017-10-07T05:12:18.473Z,5.90
2017-10-07T05:14:47.320Z,5.28
2017-10-07T05:17:16.258Z,6.07
2017-10-07T05:19:45.093Z,6.05
2017-10-07T05:22:14.637Z,5.37
2017-10-07T05:24:43.574Z,5.97
2017-10-07T05:27:12.230Z,5.75
2017-10-07T05:29:41.080Z,5.93
2017-10-07T05:32:10.707Z,6.35
2017-10-07T05:34:39.563Z,6.85
2017-10-07T05:37:08.436Z,5.30
2017-10-07T05:39:37.296Z,6.07
2017-10-07T05:42:06.135Z,6.80
2017-10-07T05:44:35.755Z,6.20
2017-10-07T05:47:05.388Z,6.45
2017-10-07T05:49:34.318Z,5.90
2017-10-07T05:52:02.992Z,6.50
2017-10-07T05:54:31.882Z,5.32
2017-10-07T05:57:00.763Z,5.97
2017-10-07T05:59:29.610Z,5.62
2017-10-07T06:01:59.240Z,6.78
2017-10-07T06:04:29.630Z,5.45
2017-10-07T06:06:58.471Z,6.50
2017-10-07T06:09:27.323Z,6.22
2017-10-07T06:11:55.842Z,5.93
2017-10-07T06:14:24.693Z,6.90
2017-10-07T06:16:53.555Z,6.97
2017-10-07T06:19:22.510Z,6.43
2017-10-07T06:21:51.385Z,6.40
2017-10-07T06:24:21.066Z,6.03
2017-10-07T06:26:49.906Z,5.30
2017-10-07T06:29:18.764Z,5.32
2017-10-07T06:31:47.612Z,6.15
2017-10-07T06:34:16.458Z,5.40
2017-10-07T06:36:46.085Z,6.37
2017-10-07T06:39:15.445Z,5.78
2017-10-07T06:41:44.300Z,5.40
2017-10-07T06:44:14.108Z,4.78
2017-10-07T06:46:42.967Z,4.50
2017-10-07T06:49:12.628Z,4.90
2017-10-07T06:51:42.491Z,5.07
2017-10-07T06:54:12.866Z,3.58
2017-10-07T06:56:41.709Z,3.87
2017-10-07T06:59:11.330Z,4.20
2017-10-07T07:01:40.176Z,2.95
2017-10-07T07:04:08.852Z,4.22
2017-10-07T07:06:38.290Z,4.60
2017-10-07T07:09:07.923Z,3.70
2017-10-07T07:11:36.776Z,3.67
2017-10-07T07:14:05.630Z,3.50
2017-10-07T07:16:34.474Z,3.70
2017-10-07T07:19:04.090Z,3.92
2017-10-07T07:21:33.705Z,4.50
2017-10-07T07:24:03.663Z,4.55
2017-10-07T07:26:32.530Z,4.05
2017-10-07T07:29:01.366Z,3.45
2017-10-07T07:31:30.219Z,4.37
2017-10-07T07:33:59.097Z,3.42
2017-10-07T07:36:27.938Z,3.75
2017-10-07T07:38:56.800Z,6.75
2017-10-07T07:41:25.663Z,3.80
2017-10-07T07:43:55.271Z,3.42
2017-10-07T07:46:24.881Z,3.10
2017-10-07T07:48:53.781Z,2.90
2017-10-07T07:51:22.635Z,3.00
2017-10-07T07:53:51.482Z,2.35
2017-10-07T07:56:20.343Z,2.37
2017-10-07T07:58:49.192Z,2.42
2017-10-07T08:01:18.875Z,2.95
2017-10-07T08:03:48.975Z,3.65
2017-10-07T08:06:17.853Z,2.55
2017-10-07T08:08:46.711Z,2.67
2017-10-07T08:11:15.552Z,2.10
2017-10-07T08:13:44.433Z,2.25
2017-10-07T08:16:13.287Z,3.65
2017-10-07T08:18:42.125Z,2.20
2017-10-07T08:21:10.998Z,1.80
2017-10-07T08:23:40.027Z,1.70
2017-10-07T08:26:08.681Z,2.20
2017-10-07T08:28:37.540Z,1.73
2017-10-07T08:31:07.275Z,2.53
2017-10-07T08:33:36.903Z,1.90
2017-10-07T08:36:06.392Z,1.58
2017-10-07T08:38:35.251Z,1.80
2017-10-07T08:41:05.128Z,1.80
2017-10-07T08:43:33.987Z,1.60
2017-10-07T08:46:03.626Z,2.12
2017-10-07T08:48:32.497Z,1.40
2017-10-07T08:51:01.347Z,1.40
2017-10-07T08:53:30.195Z,1.50
2017-10-07T08:55:59.047Z,1.60
2017-10-07T08:58:27.902Z,1.33
2017-10-07T09:00:56.762Z,1.10
2017-10-07T09:03:25.615Z,1.65
2017-10-07T09:05:54.464Z,2.12
2017-10-07T09:08:23.151Z,1.50
2017-10-07T09:10:52.007Z,1.20
2017-10-07T09:13:20.875Z,1.70
2017-10-07T09:15:49.707Z,1.30
2017-10-07T09:18:18.566Z,1.30
2017-10-07T09:20:48.188Z,1.80
2017-10-07T09:23:17.803Z,1.50
2017-10-07T09:25:46.652Z,1.90
2017-10-07T09:28:15.491Z,1.23
2017-10-07T09:30:44.478Z,1.50
2017-10-07T09:33:13.349Z,1.40
2017-10-07T09:35:42.958Z,1.70
2017-10-07T09:38:12.416Z,1.50
2017-10-07T09:40:41.325Z,1.45
2017-10-07T09:43:10.970Z,1.30
2017-10-07T09:45:39.841Z,1.10
2017-10-07T09:48:09.405Z,1.55
2017-10-07T09:50:38.309Z,1.48
2017-10-07T09:53:07.160Z,1.08
2017-10-07T09:55:36.767Z,1.85
2017-10-07T09:58:06.386Z,1.70
2017-10-07T10:00:35.245Z,1.58
2017-10-07T10:03:05.727Z,1.45
2017-10-07T10:05:34.579Z,1.40
2017-10-07T10:08:04.338Z,1.55
2017-10-07T10:10:33.198Z,1.50
2017-10-07T10:13:02.063Z,1.83
2017-10-07T10:15:30.943Z,1.30
2017-10-07T10:17:59.793Z,1.85
2017-10-07T10:20:37.199Z,1.52
2017-10-07T10:23:07.500Z,1.65
2017-10-07T10:25:36.385Z,2.58
2017-10-07T10:28:05.254Z,1.77
2017-10-07T10:30:35.770Z,1.70
2017-10-07T10:33:05.391Z,2.08
2017-10-07T10:35:34.398Z,2.12
2017-10-07T10:38:03.323Z,1.92
2017-10-07T10:40:32.209Z,2.25
2017-10-07T10:43:01.063Z,1.60
2017-10-07T10:45:30.709Z,1.45
2017-10-07T10:48:00.317Z,1.45
2017-10-07T10:50:29.162Z,1.50
2017-10-07T10:52:58.798Z,1.87
2017-10-07T10:58:02.712Z,2.10
2017-10-07T11:00:31.939Z,1.70
2017-10-07T11:03:01.415Z,1.65
2017-10-07T11:05:30.303Z,1.67
2017-10-07T11:07:59.910Z,1.30
2017-10-07T11:10:29.534Z,1.50
2017-10-07T11:12:58.379Z,1.20
2017-10-07T11:15:27.235Z,1.00
2017-10-07T11:17:56.094Z,1.40
2017-10-07T11:20:25.727Z,1.27
2017-10-07T11:22:55.506Z,1.17
2017-10-07T11:25:26.659Z,1.70
2017-10-07T11:27:56.543Z,1.30
2017-10-07T11:30:25.469Z,1.40
2017-10-07T11:32:55.943Z,1.55
2017-10-07T11:35:25.607Z,1.48
2017-10-07T11:37:54.481Z,1.40
2017-10-07T11:40:23.332Z,1.35
2017-10-07T11:42:52.174Z,1.50
2017-10-07T11:45:21.790Z,1.80
2017-10-07T11:47:51.398Z,1.40
2017-10-07T11:50:21.741Z,1.25
2017-10-07T11:52:50.620Z,1.30
2017-10-07T11:55:19.472Z,1.48
2017-10-07T11:57:48.329Z,1.42
2017-10-07T12:00:16.987Z,1.67
2017-10-07T12:02:45.843Z,1.90
2017-10-07T12:05:14.702Z,1.70
2017-10-07T12:07:43.630Z,2.00
2017-10-07T12:10:14.344Z,1.37
2017-10-07T12:12:43.228Z,1.75
2017-10-07T12:15:12.105Z,1.58
2017-10-07T12:17:40.946Z,1.60
2017-10-07T12:20:09.782Z,1.70
2017-10-07T12:22:38.453Z,1.90
2017-10-07T12:25:07.279Z,2.10
2017-10-07T12:27:35.932Z,2.35
2017-10-07T12:30:04.770Z,1.90
2017-10-07T12:32:33.629Z,2.00
2017-10-07T12:35:02.488Z,2.60
2017-10-07T12:37:32.122Z,2.20
2017-10-07T12:40:01.003Z,2.42
2017-10-07T12:42:30.014Z,2.90
2017-10-07T12:44:58.883Z,2.33
2017-10-07T12:47:28.297Z,2.70
2017-10-07T12:49:57.170Z,2.30
2017-10-07T12:52:26.027Z,2.45
2017-10-07T12:54:54.869Z,2.83
2017-10-07T12:57:23.711Z,2.70
2017-10-07T12:59:52.557Z,2.55
2017-10-07T13:02:21.402Z,2.83
2017-10-07T13:04:50.294Z,3.40
2017-10-07T13:07:19.146Z,2.90
2017-10-07T13:09:47.986Z,3.33
2017-10-07T13:12:17.618Z,5.05
2017-10-07T13:14:47.243Z,3.05
2017-10-07T13:17:16.755Z,4.32
2017-10-07T13:19:45.853Z,3.45
2017-10-07T13:22:14.670Z,3.70
2017-10-07T13:24:43.490Z,3.33
2017-10-07T13:27:13.127Z,3.90
2017-10-07T13:29:41.962Z,3.62
2017-10-07T13:32:11.005Z,3.67
2017-10-07T13:34:39.858Z,4.40
2017-10-07T13:37:08.521Z,3.45
2017-10-07T13:39:37.368Z,3.40
2017-10-07T13:42:07.587Z,3.42
2017-10-07T13:44:37.195Z,4.43
2017-10-07T13:47:06.834Z,3.12
2017-10-07T13:49:35.721Z,4.28
2017-10-07T13:52:04.596Z,3.30
2017-10-07T13:54:34.211Z,3.58
2017-10-07T13:57:03.054Z,3.42
2017-10-07T13:59:32.547Z,3.80
2017-10-07T14:02:01.420Z,3.30
2017-10-07T14:04:30.305Z,3.80
2017-10-07T14:06:59.147Z,3.03
2017-10-07T14:09:28.798Z,2.90
2017-10-07T14:11:57.651Z,3.72
2017-10-07T14:14:27.111Z,4.20
2017-10-07T14:17:00.273Z,3.75
2017-10-07T14:19:30.135Z,3.20
2017-10-07T14:21:59.014Z,2.90
2017-10-07T14:27:09.011Z,3.22
2017-10-07T14:29:37.881Z,4.43
2017-10-07T14:38:26.893Z,2.90
2017-10-07T14:43:50.514Z,2.70
2017-10-07T14:46:19.368Z,2.87
2017-10-07T14:48:48.994Z,2.65
2017-10-07T14:51:17.841Z,2.30
2017-10-07T14:53:46.683Z,2.70
2017-10-07T14:56:15.521Z,2.00
2017-10-07T14:58:44.511Z,2.78
2017-10-07T15:01:13.367Z,2.37
2017-10-07T15:03:42.938Z,2.70
2017-10-07T15:06:11.799Z,3.17
2017-10-07T15:08:40.648Z,2.72
2017-10-07T15:11:10.137Z,2.30
2017-10-07T15:13:38.822Z,2.90
2017-10-07T15:16:07.738Z,2.70
2017-10-07T15:18:37.363Z,2.30
2017-10-07T15:21:06.963Z,2.22
2017-10-07T15:23:36.521Z,2.40
2017-10-07T15:26:06.120Z,2.78
2017-10-07T15:28:34.959Z,2.58
2017-10-07T15:31:03.868Z,2.50
2017-10-07T15:33:33.487Z,2.22
2017-10-07T15:36:02.344Z,2.53
2017-10-07T15:38:31.200Z,2.30
2017-10-07T15:40:59.857Z,5.57
2017-10-07T15:43:28.694Z,4.75
2017-10-07T15:45:58.069Z,2.72
2017-10-07T15:48:27.907Z,2.90
2017-10-07T15:50:56.738Z,2.78
2017-10-07T15:53:26.836Z,3.22
2017-10-07T15:55:55.711Z,3.03
2017-10-07T15:58:24.558Z,2.47
2017-10-07T16:00:53.413Z,2.70
2017-10-07T16:03:22.290Z,2.83
2017-10-07T16:05:51.523Z,2.75
2017-10-07T16:08:21.122Z,3.72
2017-10-07T16:10:50.754Z,3.30
2017-10-07T16:13:19.597Z,4.10
2017-10-07T16:15:48.459Z,3.00
2017-10-07T16:18:17.294Z,2.37
2017-10-07T16:20:46.134Z,2.72
2017-10-07T16:23:15.428Z,2.25
2017-10-07T16:25:44.331Z,2.65
2017-10-07T16:28:13.156Z,2.65
2017-10-07T16:30:42.016Z,2.60
2017-10-07T16:33:10.869Z,2.97
2017-10-07T16:35:40.186Z,2.65
2017-10-07T16:38:09.028Z,2.67
2017-10-07T16:40:37.876Z,2.80
2017-10-07T16:43:06.690Z,2.55
2017-10-07T16:45:35.572Z,2.90
2017-10-07T16:48:04.140Z,2.70
2017-10-07T16:50:33.746Z,2.50
2017-10-07T16:53:02.596Z,3.65
2017-10-07T16:55:32.452Z,3.90
2017-10-07T16:58:01.291Z,3.08
2017-10-07T17:00:30.127Z,3.10
2017-10-07T17:02:58.974Z,3.28
2017-10-07T17:05:27.807Z,4.07
2017-10-07T17:07:56.471Z,2.33
2017-10-07T17:10:25.313Z,3.40
2017-10-07T17:12:53.983Z,2.78
2017-10-07T17:15:22.634Z,2.95
2017-10-07T17:17:51.466Z,2.80
2017-10-07T17:20:20.844Z,3.65
2017-10-07T17:22:49.740Z,3.15
2017-10-07T17:25:18.598Z,2.87
2017-10-07T17:27:47.438Z,3.10
2017-10-07T17:30:16.273Z,3.35
2017-10-07T17:32:45.219Z,3.95
2017-10-07T17:35:14.095Z,3.20
2017-10-07T17:37:42.955Z,2.97
2017-10-07T17:43:43.920Z,3.17
2017-10-07T17:46:13.642Z,4.70
2017-10-07T17:48:43.986Z,3.40
2017-10-07T17:51:13.586Z,3.30
2017-10-07T17:53:50.066Z,3.45
2017-10-07T17:59:16.291Z,3.70
2017-10-07T18:01:45.130Z,3.28
2017-10-07T18:04:17.010Z,3.00
2017-10-07T18:07:26.625Z,3.53
2017-10-07T18:10:09.857Z,2.95
2017-10-07T18:12:38.840Z,3.87
2017-10-07T18:18:16.631Z,3.10
2017-10-07T18:20:45.462Z,3.62
2017-10-07T18:23:14.326Z,3.22
2017-10-07T18:25:43.980Z,3.58
2017-10-07T18:28:12.810Z,3.17
2017-10-07T18:30:41.551Z,3.30
2017-10-07T18:33:10.287Z,3.35
2017-10-07T18:35:39.137Z,2.55
2017-10-07T18:38:07.971Z,3.30
2017-10-07T18:40:36.632Z,3.15
2017-10-07T18:43:06.311Z,3.10
2017-10-07T18:45:35.138Z,3.40
2017-10-07T18:48:03.990Z,4.07
2017-10-07T18:50:32.844Z,2.95
2017-10-07T18:53:02.451Z,3.20
2017-10-07T18:55:32.080Z,3.10
2017-10-07T18:58:00.991Z,2.80
2017-10-07T19:00:29.841Z,3.78
2017-10-07T19:02:58.687Z,3.20
2017-10-07T19:05:27.343Z,3.53
2017-10-07T19:07:56.941Z,3.80
2017-10-07T19:10:25.795Z,8.18
2017-10-07T19:12:54.642Z,3.60
2017-10-07T19:15:23.486Z,3.20
2017-10-07T19:17:52.364Z,4.18
2017-10-07T19:20:21.199Z,3.60
2017-10-07T19:22:50.808Z,3.33
2017-10-07T19:25:20.443Z,4.37
2017-10-07T19:27:49.295Z,3.55
2017-10-07T19:30:18.759Z,4.20
2017-10-07T19:32:47.642Z,3.75
2017-10-07T19:35:16.491Z,4.22
2017-10-07T19:37:47.131Z,3.78
2017-10-07T19:40:19.933Z,4.15
2017-10-07T19:42:48.787Z,3.55
2017-10-07T19:45:18.934Z,4.35
2017-10-07T19:47:47.823Z,4.07
2017-10-07T19:50:16.722Z,4.30
2017-10-07T19:52:45.589Z,3.92
2017-10-07T19:55:15.991Z,4.10
2017-10-07T19:57:45.731Z,10.45
2017-10-07T20:00:17.271Z,4.55
2017-10-07T20:02:48.054Z,3.65
2017-10-07T20:05:17.190Z,4.60
2017-10-07T20:07:46.056Z,3.25
2017-10-07T20:10:15.742Z,3.90
2017-10-07T20:12:44.586Z,3.33
2017-10-07T20:15:13.439Z,3.72
2017-10-07T20:17:42.264Z,3.28
2017-10-07T20:20:10.942Z,4.07
2017-10-07T20:22:40.443Z,3.53
2017-10-07T20:25:11.535Z,2.97
2017-10-07T20:27:41.138Z,4.35
2017-10-07T20:30:10.755Z,3.47
2017-10-07T20:32:40.633Z,3.05
2017-10-07T20:35:09.715Z,4.20
2017-10-07T20:37:40.002Z,3.20
2017-10-07T20:40:08.862Z,3.85
2017-10-07T20:42:38.479Z,2.67
2017-10-07T20:45:08.632Z,3.28
2017-10-07T20:47:37.766Z,3.30
2017-10-07T20:50:06.650Z,2.97
2017-10-07T20:52:35.330Z,3.33
2017-10-07T20:55:04.184Z,2.87
2017-10-07T20:57:33.788Z,2.70
2017-10-07T21:00:02.618Z,2.87
2017-10-07T21:02:31.462Z,2.60
2017-10-07T21:05:01.089Z,2.95
2017-10-07T21:07:29.964Z,3.08
2017-10-07T21:09:58.803Z,2.50
2017-10-07T21:12:27.660Z,2.90
2017-10-07T21:14:57.509Z,2.37
2017-10-07T21:17:26.360Z,2.83
2017-10-07T21:19:55.259Z,2.85
2017-10-07T21:22:24.834Z,2.33
2017-10-07T21:24:54.705Z,2.30
2017-10-07T21:27:23.571Z,2.60
2017-10-07T21:29:53.078Z,2.78
2017-10-07T21:32:22.393Z,2.72
2017-10-07T21:34:51.246Z,2.40
2017-10-07T21:37:20.691Z,2.83
2017-10-07T21:39:50.390Z,2.37
2017-10-07T21:42:19.258Z,2.10
2017-10-07T21:44:47.921Z,2.20
2017-10-07T21:47:16.576Z,2.47
2017-10-07T21:49:45.428Z,2.55
2017-10-07T21:52:14.358Z,2.30
2017-10-07T21:54:43.222Z,2.33
2017-10-07T21:57:12.105Z,2.28
2017-10-07T21:59:40.972Z,1.75
2017-10-07T22:02:09.804Z,2.03
2017-10-07T22:04:38.659Z,1.90
2017-10-07T22:07:08.285Z,2.42
2017-10-07T22:09:37.155Z,1.90
2017-10-07T22:12:06.770Z,1.92
2017-10-07T22:14:36.399Z,1.85
2017-10-07T22:17:06.630Z,1.92
2017-10-07T22:19:35.489Z,2.08
2017-10-07T22:22:05.399Z,1.67
2017-10-07T22:24:34.271Z,1.70
2017-10-07T22:27:03.150Z,2.05
2017-10-07T22:29:33.633Z,1.87
2017-10-07T22:32:02.501Z,1.23
2017-10-07T22:34:32.159Z,1.80
2017-10-07T22:37:01.815Z,1.42
2017-10-07T22:39:30.666Z,1.55
2017-10-07T22:41:59.527Z,1.40
2017-10-07T22:44:28.367Z,1.35
2017-10-07T22:46:57.233Z,2.67
2017-10-07T22:49:26.071Z,1.58
2017-10-07T22:51:54.928Z,1.83
2017-10-07T22:54:23.774Z,1.62
2017-10-07T22:56:53.378Z,1.30
2017-10-07T22:59:22.582Z,1.70
2017-10-07T23:01:51.445Z,1.30
2017-10-07T23:04:20.305Z,1.80
2017-10-07T23:06:49.854Z,1.25
2017-10-07T23:09:19.988Z,1.70
2017-10-07T23:11:49.262Z,1.50
2017-10-07T23:14:18.124Z,1.20
2017-10-07T23:16:47.847Z,1.40
2017-10-07T23:19:17.262Z,1.60
2017-10-07T23:21:46.115Z,1.23
2017-10-07T23:24:14.953Z,1.35
2017-10-07T23:26:44.735Z,1.27
2017-10-07T23:29:13.593Z,1.05
2017-10-07T23:31:42.442Z,1.20
2017-10-07T23:34:11.317Z,1.35
2017-10-07T23:36:40.163Z,1.40
2017-10-07T23:39:08.650Z,1.25
2017-10-07T23:41:37.484Z,1.00
2017-10-07T23:44:06.327Z,1.25
2017-10-07T23:46:35.736Z,1.30
2017-10-07T23:49:04.574Z,1.40
2017-10-07T23:51:33.423Z,1.00
2017-10-07T23:54:03.205Z,1.40
2017-10-07T23:56:32.826Z,1.37
2017-10-07T23:59:02.458Z,1.42
